sensor_id;sensor_type;location;lat;lon;timestamp;pressure;altitude;pressure_sealevel;temperature;humidity
63556;BME280;49700;48.072;7.800;2023-04-22T00:01:34;98801.41;;;11.89;nan
63556;BME280;49700;48.072;7.800;2023-04-22T00:04:15;98786.22;;;11.82;nan
63556;BME280;49700;48.072;7.800;2023-04-22T00:07:04;98787.66;;;11.74;nan
63556;BME280;49700;48.072;7.800;2023-04-22T00:09:34;98798.44;;;11.71;nan
63556;BME280;49700;48.072;7.800;2023-04-22T00:12:28;98802.06;;;11.70;nan
63556;BME280;49700;48.072;7.800;2023-04-22T00:15:15;98799.94;;;11.64;nan
63556;BME280;49700;48.072;7.800;2023-04-22T00:18:13;98799.72;;;11.56;nan
63556;BME280;49700;48.072;7.800;2023-04-22T00:21:11;98794.91;;;11.50;nan
63556;BME280;49700;48.072;7.800;2023-04-22T00:23:54;98800.31;;;11.48;nan
63556;BME280;49700;48.072;7.800;2023-04-22T00:26:50;98792.44;;;11.48;nan
63556;BME280;49700;48.072;7.800;2023-04-22T00:32:15;98801.66;;;11.43;nan
63556;BME280;49700;48.072;7.800;2023-04-22T00:35:04;98800.22;;;11.39;nan
63556;BME280;49700;48.072;7.800;2023-04-22T00:37:42;98794.38;;;11.35;nan
63556;BME280;49700;48.072;7.800;2023-04-22T00:40:33;98788.75;;;11.28;nan
63556;BME280;49700;48.072;7.800;2023-04-22T00:43:07;98790.22;;;11.21;nan
63556;BME280;49700;48.072;7.800;2023-04-22T00:45:55;98788.09;;;11.15;nan
63556;BME280;49700;48.072;7.800;2023-04-22T00:48:40;98798.13;;;11.10;nan
63556;BME280;49700;48.072;7.800;2023-04-22T00:51:19;98800.28;;;11.05;nan
63556;BME280;49700;48.072;7.800;2023-04-22T00:54:03;98805.63;;;11.03;nan
63556;BME280;49700;48.072;7.800;2023-04-22T00:56:43;98812.94;;;11.00;nan
63556;BME280;49700;48.072;7.800;2023-04-22T00:59:43;98805.75;;;10.91;nan
63556;BME280;49700;48.072;7.800;2023-04-22T01:02:25;98808.75;;;10.86;nan
63556;BME280;49700;48.072;7.800;2023-04-22T01:05:11;98799.19;;;10.85;nan
63556;BME280;49700;48.072;7.800;2023-04-22T01:07:58;98796.56;;;10.85;nan
63556;BME280;49700;48.072;7.800;2023-04-22T01:10:35;98793.22;;;10.83;nan
63556;BME280;49700;48.072;7.800;2023-04-22T01:13:27;98795.00;;;10.82;nan
63556;BME280;49700;48.072;7.800;2023-04-22T01:16:24;98795.25;;;10.79;nan
63556;BME280;49700;48.072;7.800;2023-04-22T01:19:05;98790.22;;;10.76;nan
63556;BME280;49700;48.072;7.800;2023-04-22T01:21:51;98796.56;;;10.74;nan
63556;BME280;49700;48.072;7.800;2023-04-22T01:24:18;98786.38;;;10.69;nan
63556;BME280;49700;48.072;7.800;2023-04-22T01:26:54;98796.44;;;10.64;nan
63556;BME280;49700;48.072;7.800;2023-04-22T01:29:38;98803.69;;;10.60;nan
63556;BME280;49700;48.072;7.800;2023-04-22T01:32:17;98812.66;;;10.58;nan
63556;BME280;49700;48.072;7.800;2023-04-22T01:35:03;98808.69;;;10.52;nan
63556;BME280;49700;48.072;7.800;2023-04-22T01:37:45;98812.63;;;10.47;nan
63556;BME280;49700;48.072;7.800;2023-04-22T01:40:13;98802.94;;;10.36;nan
63556;BME280;49700;48.072;7.800;2023-04-22T01:43:01;98806.25;;;10.27;nan
63556;BME280;49700;48.072;7.800;2023-04-22T01:45:39;98807.31;;;10.24;nan
63556;BME280;49700;48.072;7.800;2023-04-22T01:48:24;98807.78;;;10.18;nan
63556;BME280;49700;48.072;7.800;2023-04-22T01:51:14;98814.19;;;10.14;nan
63556;BME280;49700;48.072;7.800;2023-04-22T01:54:00;98813.19;;;10.04;nan
63556;BME280;49700;48.072;7.800;2023-04-22T01:59:47;98811.09;;;9.85;nan
63556;BME280;49700;48.072;7.800;2023-04-22T02:02:35;98818.81;;;9.75;nan
63556;BME280;49700;48.072;7.800;2023-04-22T02:05:05;98817.34;;;9.71;nan
63556;BME280;49700;48.072;7.800;2023-04-22T02:07:31;98816.97;;;9.64;nan
63556;BME280;49700;48.072;7.800;2023-04-22T02:10:07;98826.59;;;9.64;nan
63556;BME280;49700;48.072;7.800;2023-04-22T02:12:38;98839.38;;;9.68;nan
63556;BME280;49700;48.072;7.800;2023-04-22T02:15:36;98840.00;;;9.72;nan
63556;BME280;49700;48.072;7.800;2023-04-22T02:18:22;98840.94;;;9.71;nan
63556;BME280;49700;48.072;7.800;2023-04-22T02:21:00;98844.13;;;9.63;nan
63556;BME280;49700;48.072;7.800;2023-04-22T02:23:29;98842.56;;;9.61;nan
63556;BME280;49700;48.072;7.800;2023-04-22T02:25:57;98841.72;;;9.60;nan
63556;BME280;49700;48.072;7.800;2023-04-22T02:28:35;98850.41;;;9.61;nan
63556;BME280;49700;48.072;7.800;2023-04-22T02:31:19;98844.34;;;9.60;nan
63556;BME280;49700;48.072;7.800;2023-04-22T02:34:08;98847.94;;;9.59;nan
63556;BME280;49700;48.072;7.800;2023-04-22T02:36:34;98841.00;;;9.58;nan
63556;BME280;49700;48.072;7.800;2023-04-22T02:39:10;98850.53;;;9.59;nan
63556;BME280;49700;48.072;7.800;2023-04-22T02:41:48;98851.38;;;9.60;nan
63556;BME280;49700;48.072;7.800;2023-04-22T02:44:42;98849.81;;;9.57;nan
63556;BME280;49700;48.072;7.800;2023-04-22T02:47:18;98860.97;;;9.48;nan
63556;BME280;49700;48.072;7.800;2023-04-22T02:50:23;98852.69;;;9.41;nan
63556;BME280;49700;48.072;7.800;2023-04-22T02:52:58;98866.09;;;9.37;nan
63556;BME280;49700;48.072;7.800;2023-04-22T02:55:44;98868.84;;;9.35;nan
63556;BME280;49700;48.072;7.800;2023-04-22T02:58:15;98873.56;;;9.30;nan
63556;BME280;49700;48.072;7.800;2023-04-22T03:00:54;98873.88;;;9.25;nan
63556;BME280;49700;48.072;7.800;2023-04-22T03:03:32;98878.72;;;9.19;nan
63556;BME280;49700;48.072;7.800;2023-04-22T03:06:18;98870.34;;;9.14;nan
63556;BME280;49700;48.072;7.800;2023-04-22T03:09:15;98867.66;;;9.02;nan
63556;BME280;49700;48.072;7.800;2023-04-22T03:11:59;98863.97;;;8.92;nan
63556;BME280;49700;48.072;7.800;2023-04-22T03:14:41;98861.88;;;8.84;nan
63556;BME280;49700;48.072;7.800;2023-04-22T03:17:17;98856.31;;;8.76;nan
63556;BME280;49700;48.072;7.800;2023-04-22T03:20:02;98862.59;;;8.74;nan
63556;BME280;49700;48.072;7.800;2023-04-22T03:22:55;98858.00;;;8.77;nan
63556;BME280;49700;48.072;7.800;2023-04-22T03:25:39;98858.84;;;8.78;nan
63556;BME280;49700;48.072;7.800;2023-04-22T03:28:29;98864.09;;;8.78;nan
63556;BME280;49700;48.072;7.800;2023-04-22T03:31:05;98858.63;;;8.81;nan
63556;BME280;49700;48.072;7.800;2023-04-22T03:33:53;98861.03;;;8.84;nan
63556;BME280;49700;48.072;7.800;2023-04-22T03:36:32;98858.81;;;8.91;nan
63556;BME280;49700;48.072;7.800;2023-04-22T03:39:42;98856.03;;;8.81;nan
63556;BME280;49700;48.072;7.800;2023-04-22T03:42:20;98861.03;;;8.71;nan
63556;BME280;49700;48.072;7.800;2023-04-22T03:48:25;98857.16;;;8.51;nan
63556;BME280;49700;48.072;7.800;2023-04-22T03:50:58;98856.41;;;8.49;nan
63556;BME280;49700;48.072;7.800;2023-04-22T03:53:55;98856.50;;;8.48;nan
63556;BME280;49700;48.072;7.800;2023-04-22T03:56:34;98845.13;;;8.49;nan
63556;BME280;49700;48.072;7.800;2023-04-22T03:59:19;98841.31;;;8.53;nan
63556;BME280;49700;48.072;7.800;2023-04-22T04:02:06;98842.38;;;8.50;nan
63556;BME280;49700;48.072;7.800;2023-04-22T04:04:42;98841.44;;;8.51;nan
63556;BME280;49700;48.072;7.800;2023-04-22T04:07:22;98836.09;;;8.53;nan
63556;BME280;49700;48.072;7.800;2023-04-22T04:09:57;98836.84;;;8.55;nan
63556;BME280;49700;48.072;7.800;2023-04-22T04:12:31;98834.00;;;8.58;nan
63556;BME280;49700;48.072;7.800;2023-04-22T04:15:09;98839.03;;;8.61;nan
63556;BME280;49700;48.072;7.800;2023-04-22T04:17:59;98838.94;;;8.62;nan
63556;BME280;49700;48.072;7.800;2023-04-22T04:20:48;98835.16;;;8.67;nan
63556;BME280;49700;48.072;7.800;2023-04-22T04:23:42;98842.69;;;8.71;nan
63556;BME280;49700;48.072;7.800;2023-04-22T04:26:20;98842.63;;;8.73;nan
63556;BME280;49700;48.072;7.800;2023-04-22T04:29:20;98839.03;;;8.74;nan
63556;BME280;49700;48.072;7.800;2023-04-22T04:32:19;98830.97;;;8.77;nan
63556;BME280;49700;48.072;7.800;2023-04-22T04:35:10;98824.16;;;8.74;nan
63556;BME280;49700;48.072;7.800;2023-04-22T04:37:52;98837.47;;;8.71;nan
63556;BME280;49700;48.072;7.800;2023-04-22T04:40:28;98824.50;;;8.70;nan
63556;BME280;49700;48.072;7.800;2023-04-22T04:43:21;98831.72;;;8.66;nan
63556;BME280;49700;48.072;7.800;2023-04-22T04:46:17;98827.44;;;8.65;nan
63556;BME280;49700;48.072;7.800;2023-04-22T04:49:05;98820.31;;;8.67;nan
63556;BME280;49700;48.072;7.800;2023-04-22T04:51:48;98815.69;;;8.71;nan
63556;BME280;49700;48.072;7.800;2023-04-22T04:54:42;98817.56;;;8.69;nan
63556;BME280;49700;48.072;7.800;2023-04-22T04:57:21;98831.63;;;8.68;nan
63556;BME280;49700;48.072;7.800;2023-04-22T04:59:57;98825.44;;;8.69;nan
63556;BME280;49700;48.072;7.800;2023-04-22T05:02:32;98821.97;;;8.68;nan
63556;BME280;49700;48.072;7.800;2023-04-22T05:05:00;98825.13;;;8.73;nan
63556;BME280;49700;48.072;7.800;2023-04-22T05:07:42;98823.94;;;8.77;nan
63556;BME280;49700;48.072;7.800;2023-04-22T05:10:28;98827.94;;;8.83;nan
63556;BME280;49700;48.072;7.800;2023-04-22T05:13:18;98832.41;;;8.94;nan
63556;BME280;49700;48.072;7.800;2023-04-22T05:16:44;98837.44;;;9.09;nan
63556;BME280;49700;48.072;7.800;2023-04-22T05:26:59;98838.84;;;10.00;nan
63556;BME280;49700;48.072;7.800;2023-04-22T05:29:55;98843.53;;;10.32;nan
63556;BME280;49700;48.072;7.800;2023-04-22T05:33:03;98841.78;;;10.66;nan
63556;BME280;49700;48.072;7.800;2023-04-22T05:36:02;98842.56;;;11.02;nan
63556;BME280;49700;48.072;7.800;2023-04-22T05:38:28;98850.09;;;11.29;nan
63556;BME280;49700;48.072;7.800;2023-04-22T05:40:56;98842.28;;;11.39;nan
63556;BME280;49700;48.072;7.800;2023-04-22T05:43:23;98848.00;;;11.55;nan
63556;BME280;49700;48.072;7.800;2023-04-22T05:46:24;98860.28;;;11.66;nan
63556;BME280;49700;48.072;7.800;2023-04-22T05:49:20;98860.91;;;11.69;nan
63556;BME280;49700;48.072;7.800;2023-04-22T05:52:25;98855.84;;;11.78;nan
63556;BME280;49700;48.072;7.800;2023-04-22T05:55:41;98858.09;;;11.93;nan
63556;BME280;49700;48.072;7.800;2023-04-22T05:58:19;98858.66;;;12.08;nan
63556;BME280;49700;48.072;7.800;2023-04-22T06:00:58;98850.25;;;12.14;nan
63556;BME280;49700;48.072;7.800;2023-04-22T06:03:56;98860.03;;;12.24;nan
63556;BME280;49700;48.072;7.800;2023-04-22T06:06:23;98859.66;;;12.49;nan
63556;BME280;49700;48.072;7.800;2023-04-22T06:08:48;98858.78;;;12.91;nan
63556;BME280;49700;48.072;7.800;2023-04-22T06:11:16;98860.19;;;13.25;nan
63556;BME280;49700;48.072;7.800;2023-04-22T06:13:42;98861.94;;;13.86;nan
63556;BME280;49700;48.072;7.800;2023-04-22T06:16:10;98855.28;;;14.70;nan
63556;BME280;49700;48.072;7.800;2023-04-22T06:18:36;98861.44;;;15.63;nan
63556;BME280;49700;48.072;7.800;2023-04-22T06:21:09;98857.94;;;16.62;nan
63556;BME280;49700;48.072;7.800;2023-04-22T06:23:35;98849.13;;;17.82;nan
63556;BME280;49700;48.072;7.800;2023-04-22T06:26:01;98845.41;;;18.42;nan
63556;BME280;49700;48.072;7.800;2023-04-22T06:28:37;98853.69;;;18.88;nan
63556;BME280;49700;48.072;7.800;2023-04-22T06:31:10;98852.31;;;19.08;nan
63556;BME280;49700;48.072;7.800;2023-04-22T06:33:35;98866.78;;;19.06;nan
63556;BME280;49700;48.072;7.800;2023-04-22T06:36:16;98871.97;;;18.66;nan
63556;BME280;49700;48.072;7.800;2023-04-22T06:38:50;98866.81;;;18.24;nan
63556;BME280;49700;48.072;7.800;2023-04-22T06:41:33;98867.56;;;17.83;nan
63556;BME280;49700;48.072;7.800;2023-04-22T06:44:28;98878.00;;;17.34;nan
63556;BME280;49700;48.072;7.800;2023-04-22T06:47:32;98874.47;;;16.99;nan
63556;BME280;49700;48.072;7.800;2023-04-22T06:50:13;98876.19;;;17.09;nan
63556;BME280;49700;48.072;7.800;2023-04-22T06:53:02;98874.22;;;17.45;nan
63556;BME280;49700;48.072;7.800;2023-04-22T06:55:48;98879.25;;;17.56;nan
63556;BME280;49700;48.072;7.800;2023-04-22T06:58:24;98873.88;;;17.40;nan
63556;BME280;49700;48.072;7.800;2023-04-22T07:00:50;98875.34;;;17.08;nan
63556;BME280;49700;48.072;7.800;2023-04-22T07:03:26;98874.28;;;16.75;nan
63556;BME280;49700;48.072;7.800;2023-04-22T07:06:08;98866.09;;;16.42;nan
63556;BME280;49700;48.072;7.800;2023-04-22T07:08:34;98871.69;;;16.21;nan
63556;BME280;49700;48.072;7.800;2023-04-22T07:11:23;98867.84;;;16.15;nan
63556;BME280;49700;48.072;7.800;2023-04-22T07:14:27;98869.69;;;16.59;nan
63556;BME280;49700;48.072;7.800;2023-04-22T07:17:32;98858.91;;;17.39;nan
63556;BME280;49700;48.072;7.800;2023-04-22T07:20:30;98853.34;;;18.25;nan
63556;BME280;49700;48.072;7.800;2023-04-22T07:23:38;98853.75;;;19.19;nan
63556;BME280;49700;48.072;7.800;2023-04-22T07:26:22;98856.31;;;19.91;nan
63556;BME280;49700;48.072;7.800;2023-04-22T07:29:21;98852.66;;;20.61;nan
63556;BME280;49700;48.072;7.800;2023-04-22T07:31:59;98844.16;;;20.95;nan
63556;BME280;49700;48.072;7.800;2023-04-22T07:34:24;98846.53;;;21.35;nan
63556;BME280;49700;48.072;7.800;2023-04-22T07:36:50;98838.50;;;21.79;nan
63556;BME280;49700;48.072;7.800;2023-04-22T07:39:18;98834.19;;;22.21;nan
63556;BME280;49700;48.072;7.800;2023-04-22T07:45:04;98823.06;;;22.67;nan
63556;BME280;49700;48.072;7.800;2023-04-22T07:48:11;98823.63;;;22.63;nan
63556;BME280;49700;48.072;7.800;2023-04-22T07:51:18;98829.06;;;22.69;nan
63556;BME280;49700;48.072;7.800;2023-04-22T07:53:44;98821.22;;;22.96;nan
63556;BME280;49700;48.072;7.800;2023-04-22T07:56:10;98809.13;;;23.07;nan
63556;BME280;49700;48.072;7.800;2023-04-22T07:58:35;98819.06;;;23.19;nan
63556;BME280;49700;48.072;7.800;2023-04-22T08:01:01;98812.13;;;23.25;nan
63556;BME280;49700;48.072;7.800;2023-04-22T08:03:26;98819.38;;;23.38;nan
63556;BME280;49700;48.072;7.800;2023-04-22T08:05:52;98817.56;;;23.45;nan
63556;BME280;49700;48.072;7.800;2023-04-22T08:08:26;98830.91;;;23.32;nan
63556;BME280;49700;48.072;7.800;2023-04-22T08:10:51;98825.88;;;23.15;nan
63556;BME280;49700;48.072;7.800;2023-04-22T08:13:17;98821.34;;;23.16;nan
63556;BME280;49700;48.072;7.800;2023-04-22T08:15:43;98823.03;;;23.24;nan
63556;BME280;49700;48.072;7.800;2023-04-22T08:18:46;98814.81;;;23.25;nan
63556;BME280;49700;48.072;7.800;2023-04-22T08:28:58;98808.75;;;23.64;nan
63556;BME280;49700;48.072;7.800;2023-04-22T08:32:36;98807.31;;;23.62;nan
63556;BME280;49700;48.072;7.800;2023-04-22T08:42:50;98799.66;;;23.04;nan
63556;BME280;49700;48.072;7.800;2023-04-22T08:57:23;98788.59;;;21.50;nan
63556;BME280;49700;48.072;7.800;2023-04-22T09:07:07;98782.09;;;21.23;nan
63556;BME280;49700;48.072;7.800;2023-04-22T09:10:18;98785.75;;;21.22;nan
63556;BME280;49700;48.072;7.800;2023-04-22T09:24:15;98777.44;;;21.47;nan
63556;BME280;49700;48.072;7.800;2023-04-22T09:27:07;98767.22;;;21.50;nan
63556;BME280;49700;48.072;7.800;2023-04-22T09:37:29;98790.69;;;21.91;nan
63556;BME280;49700;48.072;7.800;2023-04-22T09:40:45;98781.75;;;22.05;nan
63556;BME280;49700;48.072;7.800;2023-04-22T09:47:42;98784.41;;;22.48;nan
63556;BME280;49700;48.072;7.800;2023-04-22T09:50:32;98786.47;;;22.74;nan
63556;BME280;49700;48.072;7.800;2023-04-22T09:57:03;98789.72;;;22.98;nan
63556;BME280;49700;48.072;7.800;2023-04-22T10:00:00;98777.66;;;23.15;nan
63556;BME280;49700;48.072;7.800;2023-04-22T10:10:14;98792.63;;;23.45;nan
63556;BME280;49700;48.072;7.800;2023-04-22T10:13:29;98776.38;;;23.59;nan
63556;BME280;49700;48.072;7.800;2023-04-22T10:19:45;98776.31;;;24.21;nan
63556;BME280;49700;48.072;7.800;2023-04-22T10:22:34;98753.78;;;24.22;nan
63556;BME280;49700;48.072;7.800;2023-04-22T10:25:21;98746.56;;;24.02;nan
63556;BME280;49700;48.072;7.800;2023-04-22T10:28:01;98760.72;;;23.70;nan
63556;BME280;49700;48.072;7.800;2023-04-22T10:30:31;98746.69;;;23.68;nan
63556;BME280;49700;48.072;7.800;2023-04-22T10:36:15;98747.06;;;23.51;nan
63556;BME280;49700;48.072;7.800;2023-04-22T10:41:33;98767.50;;;23.04;nan
63556;BME280;49700;48.072;7.800;2023-04-22T10:44:09;98760.28;;;22.98;nan
63556;BME280;49700;48.072;7.800;2023-04-22T10:49:17;98743.88;;;22.86;nan
63556;BME280;49700;48.072;7.800;2023-04-22T10:51:52;98750.44;;;22.77;nan
63556;BME280;49700;48.072;7.800;2023-04-22T10:59:33;98752.03;;;22.37;nan
63556;BME280;49700;48.072;7.800;2023-04-22T11:02:04;98757.69;;;22.27;nan
63556;BME280;49700;48.072;7.800;2023-04-22T11:04:33;98759.31;;;22.21;nan
63556;BME280;49700;48.072;7.800;2023-04-22T11:13:30;98759.16;;;22.08;nan
63556;BME280;49700;48.072;7.800;2023-04-22T11:16:01;98759.63;;;21.90;nan
63556;BME280;49700;48.072;7.800;2023-04-22T11:18:27;98754.72;;;21.72;nan
63556;BME280;49700;48.072;7.800;2023-04-22T11:21:06;98764.31;;;21.67;nan
63556;BME280;49700;48.072;7.800;2023-04-22T11:23:33;98756.22;;;21.60;nan
63556;BME280;49700;48.072;7.800;2023-04-22T11:26:31;98755.78;;;21.56;nan
63556;BME280;49700;48.072;7.800;2023-04-22T11:29:48;98766.34;;;21.64;nan
63556;BME280;49700;48.072;7.800;2023-04-22T11:32:57;98763.25;;;21.82;nan
63556;BME280;49700;48.072;7.800;2023-04-22T11:39:40;98753.63;;;22.31;nan
63556;BME280;49700;48.072;7.800;2023-04-22T11:50:07;98760.34;;;22.48;nan
63556;BME280;49700;48.072;7.800;2023-04-22T11:57:09;98759.41;;;22.35;nan
63556;BME280;49700;48.072;7.800;2023-04-22T12:00:11;98764.59;;;22.36;nan
63556;BME280;49700;48.072;7.800;2023-04-22T12:03:02;98760.88;;;22.37;nan
63556;BME280;49700;48.072;7.800;2023-04-22T12:05:55;98775.88;;;22.38;nan
63556;BME280;49700;48.072;7.800;2023-04-22T12:08:36;98782.03;;;22.32;nan
63556;BME280;49700;48.072;7.800;2023-04-22T12:11:29;98774.06;;;22.17;nan
63556;BME280;49700;48.072;7.800;2023-04-22T12:14:12;98787.94;;;22.06;nan
63556;BME280;49700;48.072;7.800;2023-04-22T12:16:46;98761.19;;;22.06;nan
63556;BME280;49700;48.072;7.800;2023-04-22T12:19:32;98760.75;;;22.24;nan
63556;BME280;49700;48.072;7.800;2023-04-22T12:22:05;98758.88;;;22.46;nan
63556;BME280;49700;48.072;7.800;2023-04-22T12:24:59;98755.56;;;22.72;nan
63556;BME280;49700;48.072;7.800;2023-04-22T12:31:29;98770.66;;;23.14;nan
63556;BME280;49700;48.072;7.800;2023-04-22T12:34:15;98763.66;;;23.20;nan
63556;BME280;49700;48.072;7.800;2023-04-22T12:36:51;98768.19;;;23.19;nan
63556;BME280;49700;48.072;7.800;2023-04-22T12:39:36;98765.13;;;23.23;nan
63556;BME280;49700;48.072;7.800;2023-04-22T12:42:14;98768.44;;;23.31;nan
63556;BME280;49700;48.072;7.800;2023-04-22T12:45:13;98767.69;;;23.44;nan
63556;BME280;49700;48.072;7.800;2023-04-22T12:48:43;98759.47;;;23.52;nan
63556;BME280;49700;48.072;7.800;2023-04-22T12:51:22;98761.31;;;23.58;nan
63556;BME280;49700;48.072;7.800;2023-04-22T12:54:14;98756.41;;;23.69;nan
63556;BME280;49700;48.072;7.800;2023-04-22T12:57:06;98760.34;;;23.73;nan
63556;BME280;49700;48.072;7.800;2023-04-22T12:59:44;98765.28;;;23.76;nan
63556;BME280;49700;48.072;7.800;2023-04-22T13:02:53;98763.06;;;23.86;nan
63556;BME280;49700;48.072;7.800;2023-04-22T13:05:33;98756.47;;;23.95;nan
63556;BME280;49700;48.072;7.800;2023-04-22T13:08:01;98764.94;;;23.99;nan
63556;BME280;49700;48.072;7.800;2023-04-22T13:10:27;98754.84;;;24.01;nan
63556;BME280;49700;48.072;7.800;2023-04-22T13:12:57;98754.59;;;24.02;nan
63556;BME280;49700;48.072;7.800;2023-04-22T13:15:23;98745.75;;;23.95;nan
63556;BME280;49700;48.072;7.800;2023-04-22T13:18:14;98747.19;;;23.91;nan
63556;BME280;49700;48.072;7.800;2023-04-22T13:21:14;98753.59;;;23.90;nan
63556;BME280;49700;48.072;7.800;2023-04-22T13:23:53;98752.97;;;23.88;nan
63556;BME280;49700;48.072;7.800;2023-04-22T13:26:28;98758.72;;;23.85;nan
63556;BME280;49700;48.072;7.800;2023-04-22T13:29:01;98744.28;;;23.86;nan
63556;BME280;49700;48.072;7.800;2023-04-22T13:31:55;98748.63;;;23.94;nan
63556;BME280;49700;48.072;7.800;2023-04-22T13:34:41;98740.16;;;23.90;nan
63556;BME280;49700;48.072;7.800;2023-04-22T13:37:12;98739.97;;;23.85;nan
63556;BME280;49700;48.072;7.800;2023-04-22T13:39:53;98744.88;;;23.81;nan
63556;BME280;49700;48.072;7.800;2023-04-22T13:42:37;98742.22;;;23.88;nan
63556;BME280;49700;48.072;7.800;2023-04-22T13:45:44;98734.00;;;24.10;nan
63556;BME280;49700;48.072;7.800;2023-04-22T13:48:58;98737.06;;;24.26;nan
63556;BME280;49700;48.072;7.800;2023-04-22T13:51:53;98736.66;;;24.36;nan
63556;BME280;49700;48.072;7.800;2023-04-22T13:54:21;98734.19;;;24.41;nan
63556;BME280;49700;48.072;7.800;2023-04-22T13:57:44;98729.22;;;24.38;nan
63556;BME280;49700;48.072;7.800;2023-04-22T14:00:20;98724.47;;;24.34;nan
63556;BME280;49700;48.072;7.800;2023-04-22T14:26:36;98725.91;;;24.29;nan
63556;BME280;49700;48.072;7.800;2023-04-22T14:29:57;98725.72;;;24.18;nan
63556;BME280;49700;48.072;7.800;2023-04-22T14:40:38;98731.50;;;23.88;nan
63556;BME280;49700;48.072;7.800;2023-04-22T14:44:03;98720.75;;;23.81;nan
63556;BME280;49700;48.072;7.800;2023-04-22T14:54:52;98721.84;;;23.32;nan
63556;BME280;49700;48.072;7.800;2023-04-22T14:58:26;98720.81;;;23.20;nan
63556;BME280;49700;48.072;7.800;2023-04-22T15:01:58;98731.25;;;23.08;nan
63556;BME280;49700;48.072;7.800;2023-04-22T15:05:16;98731.16;;;22.95;nan
63556;BME280;49700;48.072;7.800;2023-04-22T15:15:07;98758.22;;;22.44;nan
63556;BME280;49700;48.072;7.800;2023-04-22T15:18:09;98762.47;;;22.31;nan
63556;BME280;49700;48.072;7.800;2023-04-22T15:20:57;98768.72;;;22.17;nan
63556;BME280;49700;48.072;7.800;2023-04-22T15:24:06;98787.06;;;21.99;nan
63556;BME280;49700;48.072;7.800;2023-04-22T15:27:00;98794.03;;;21.78;nan
63556;BME280;49700;48.072;7.800;2023-04-22T15:29:54;98795.84;;;21.56;nan
63556;BME280;49700;48.072;7.800;2023-04-22T15:32:58;98806.38;;;21.28;nan
63556;BME280;49700;48.072;7.800;2023-04-22T15:35:52;98804.25;;;21.09;nan
63556;BME280;49700;48.072;7.800;2023-04-22T15:38:41;98817.19;;;20.90;nan
63556;BME280;49700;48.072;7.800;2023-04-22T15:41:19;98822.69;;;20.74;nan
63556;BME280;49700;48.072;7.800;2023-04-22T15:44:00;98834.78;;;20.62;nan
63556;BME280;49700;48.072;7.800;2023-04-22T15:46:56;98831.50;;;20.37;nan
63556;BME280;49700;48.072;7.800;2023-04-22T15:49:59;98844.47;;;20.17;nan
63556;BME280;49700;48.072;7.800;2023-04-22T15:53:11;98843.28;;;19.96;nan
63556;BME280;49700;48.072;7.800;2023-04-22T15:55:51;98842.22;;;19.82;nan
63556;BME280;49700;48.072;7.800;2023-04-22T15:58:40;98849.75;;;19.71;nan
63556;BME280;49700;48.072;7.800;2023-04-22T16:01:36;98846.28;;;19.62;nan
63556;BME280;49700;48.072;7.800;2023-04-22T16:04:24;98848.81;;;19.55;nan
63556;BME280;49700;48.072;7.800;2023-04-22T16:07:10;98857.66;;;19.48;nan
63556;BME280;49700;48.072;7.800;2023-04-22T16:09:38;98854.84;;;19.41;nan
63556;BME280;49700;48.072;7.800;2023-04-22T16:12:04;98856.22;;;19.37;nan
63556;BME280;49700;48.072;7.800;2023-04-22T16:14:31;98856.72;;;19.32;nan
63556;BME280;49700;48.072;7.800;2023-04-22T16:16:57;98865.22;;;19.28;nan
63556;BME280;49700;48.072;7.800;2023-04-22T16:19:42;98866.56;;;19.23;nan
63556;BME280;49700;48.072;7.800;2023-04-22T16:22:46;98864.41;;;19.19;nan
63556;BME280;49700;48.072;7.800;2023-04-22T16:25:55;98863.75;;;19.17;nan
63556;BME280;49700;48.072;7.800;2023-04-22T16:28:43;98870.59;;;19.11;nan
63556;BME280;49700;48.072;7.800;2023-04-22T16:31:32;98867.28;;;19.09;nan
63556;BME280;49700;48.072;7.800;2023-04-22T16:34:30;98871.59;;;19.10;nan
63556;BME280;49700;48.072;7.800;2023-04-22T16:37:26;98877.94;;;19.09;nan
63556;BME280;49700;48.072;7.800;2023-04-22T16:40:03;98879.94;;;19.07;nan
63556;BME280;49700;48.072;7.800;2023-04-22T16:42:30;98878.59;;;19.03;nan
63556;BME280;49700;48.072;7.800;2023-04-22T16:45:02;98880.09;;;18.97;nan
63556;BME280;49700;48.072;7.800;2023-04-22T16:47:28;98880.44;;;18.94;nan
63556;BME280;49700;48.072;7.800;2023-04-22T16:49:54;98872.81;;;18.91;nan
63556;BME280;49700;48.072;7.800;2023-04-22T16:52:19;98879.97;;;18.91;nan
63556;BME280;49700;48.072;7.800;2023-04-22T16:55:04;98876.63;;;18.89;nan
63556;BME280;49700;48.072;7.800;2023-04-22T16:57:31;98880.47;;;18.86;nan
63556;BME280;49700;48.072;7.800;2023-04-22T16:59:58;98875.28;;;18.85;nan
63556;BME280;49700;48.072;7.800;2023-04-22T17:03:13;98883.81;;;18.80;nan
63556;BME280;49700;48.072;7.800;2023-04-22T17:06:09;98880.63;;;18.76;nan
63556;BME280;49700;48.072;7.800;2023-04-22T17:09:29;98873.78;;;18.74;nan
63556;BME280;49700;48.072;7.800;2023-04-22T17:13:06;98869.81;;;18.70;nan
63556;BME280;49700;48.072;7.800;2023-04-22T17:15:53;98878.13;;;18.67;nan
63556;BME280;49700;48.072;7.800;2023-04-22T17:18:48;98878.94;;;18.67;nan
63556;BME280;49700;48.072;7.800;2023-04-22T17:21:50;98871.63;;;18.69;nan
63556;BME280;49700;48.072;7.800;2023-04-22T17:24:49;98866.81;;;18.73;nan
63556;BME280;49700;48.072;7.800;2023-04-22T17:31:16;98877.97;;;18.76;nan
63556;BME280;49700;48.072;7.800;2023-04-22T17:34:25;98880.63;;;18.76;nan
63556;BME280;49700;48.072;7.800;2023-04-22T17:37:42;98873.78;;;18.74;nan
63556;BME280;49700;48.072;7.800;2023-04-22T17:40:54;98867.28;;;18.68;nan
63556;BME280;49700;48.072;7.800;2023-04-22T17:43:48;98865.31;;;18.62;nan
63556;BME280;49700;48.072;7.800;2023-04-22T17:46:43;98864.31;;;18.55;nan
63556;BME280;49700;48.072;7.800;2023-04-22T17:49:35;98863.81;;;18.51;nan
63556;BME280;49700;48.072;7.800;2023-04-22T17:52:33;98866.97;;;18.47;nan
63556;BME280;49700;48.072;7.800;2023-04-22T18:01:55;98876.94;;;18.20;nan
63556;BME280;49700;48.072;7.800;2023-04-22T18:04:42;98882.91;;;18.14;nan
63556;BME280;49700;48.072;7.800;2023-04-22T18:07:47;98880.91;;;18.08;nan
63556;BME280;49700;48.072;7.800;2023-04-22T18:11:12;98875.72;;;17.98;nan
63556;BME280;49700;48.072;7.800;2023-04-22T18:14:14;98866.56;;;17.84;nan